createdAt,value
2022-09-18T00:01:10.654Z,12.64
2022-09-18T00:03:38.666Z,12.63
2022-09-18T00:06:08.589Z,12.61
2022-09-18T00:08:38.481Z,12.62
2022-09-18T00:11:07.925Z,12.60
2022-09-18T00:13:39.097Z,12.59
2022-09-18T00:16:08.361Z,12.59
2022-09-18T00:18:36.393Z,12.58
2022-09-18T00:21:06.000Z,12.61
2022-09-18T00:23:34.025Z,12.58
2022-09-18T00:26:01.853Z,12.58
2022-09-18T00:28:29.785Z,12.56
2022-09-18T00:31:04.628Z,12.52
2022-09-18T00:33:32.593Z,12.52
2022-09-18T00:36:01.860Z,12.49
2022-09-18T00:38:31.876Z,12.46
2022-09-18T00:40:59.997Z,12.45
2022-09-18T00:43:29.979Z,12.48
2022-09-18T00:46:02.439Z,12.44
2022-09-18T00:48:33.521Z,12.48
2022-09-18T00:51:01.428Z,12.44
2022-09-18T00:53:29.947Z,12.41
2022-09-18T00:55:59.813Z,12.43
2022-09-18T00:58:27.767Z,12.44
2022-09-18T01:00:56.196Z,12.45
2022-09-18T01:03:25.324Z,12.51
2022-09-18T01:06:06.829Z,12.54
2022-09-18T01:08:44.260Z,12.53
2022-09-18T01:11:25.863Z,12.54
2022-09-18T01:14:01.360Z,12.55
2022-09-18T01:16:33.487Z,12.54
2022-09-18T01:19:16.153Z,12.53
2022-09-18T01:21:50.626Z,12.51
2022-09-18T01:24:45.274Z,12.48
2022-09-18T01:27:20.779Z,12.49
2022-09-18T01:29:56.797Z,12.52
2022-09-18T01:32:28.867Z,12.48
2022-09-18T01:35:09.767Z,12.47
2022-09-18T01:37:52.858Z,12.52
2022-09-18T01:40:25.627Z,12.53
2022-09-18T01:42:57.299Z,12.52
2022-09-18T01:45:30.758Z,12.54
2022-09-18T01:48:02.438Z,12.54
2022-09-18T01:50:33.434Z,12.54
2022-09-18T01:53:05.329Z,12.55
2022-09-18T01:55:35.163Z,12.58
2022-09-18T01:58:07.337Z,12.57
2022-09-18T02:00:38.354Z,12.57
2022-09-18T02:03:11.593Z,12.53
2022-09-18T02:05:45.500Z,12.52
2022-09-18T02:08:18.991Z,12.52
2022-09-18T02:10:51.858Z,12.51
2022-09-18T02:13:24.873Z,12.52
2022-09-18T02:16:01.185Z,12.55
2022-09-18T02:18:33.082Z,12.55
2022-09-18T02:21:02.556Z,12.57
2022-09-18T02:23:31.760Z,12.56
2022-09-18T02:26:04.370Z,12.58
2022-09-18T02:28:34.038Z,12.58
2022-09-18T02:31:03.365Z,12.58
2022-09-18T02:33:32.801Z,12.58
2022-09-18T02:36:31.906Z,12.57
2022-09-18T02:39:13.844Z,12.55
2022-09-18T02:41:50.313Z,12.54
2022-09-18T02:44:24.365Z,12.56
2022-09-18T02:47:01.744Z,12.56
2022-09-18T02:49:37.593Z,12.54
2022-09-18T02:52:10.279Z,12.56
2022-09-18T02:54:43.076Z,12.57
2022-09-18T02:57:15.262Z,12.56
2022-09-18T02:59:47.491Z,12.55
2022-09-18T03:02:16.528Z,12.57
2022-09-18T03:04:45.355Z,12.56
2022-09-18T03:07:14.629Z,12.53
2022-09-18T03:09:42.497Z,12.56
2022-09-18T03:12:10.238Z,12.55
2022-09-18T03:14:37.818Z,12.53
2022-09-18T03:17:05.715Z,12.55
2022-09-18T03:19:34.677Z,12.55
2022-09-18T03:22:02.285Z,12.50
2022-09-18T03:24:29.990Z,12.53
2022-09-18T03:26:57.735Z,12.48
2022-09-18T03:29:25.330Z,12.46
2022-09-18T03:31:53.035Z,12.50
2022-09-18T03:34:20.950Z,12.49
2022-09-18T03:36:49.933Z,12.52
2022-09-18T03:39:18.894Z,12.54
2022-09-18T03:41:46.501Z,12.47
2022-09-18T03:44:14.108Z,12.46
2022-09-18T03:46:41.779Z,12.44
2022-09-18T03:49:09.949Z,12.43
2022-09-18T03:51:37.821Z,12.46
2022-09-18T03:54:07.007Z,12.46
2022-09-18T03:56:37.037Z,12.50
2022-09-18T03:59:04.615Z,12.50
2022-09-18T04:01:32.275Z,12.46
2022-09-18T04:03:59.943Z,12.48
2022-09-18T04:06:27.655Z,12.51
2022-09-18T04:08:55.258Z,12.48
2022-09-18T04:11:24.244Z,12.47
2022-09-18T04:13:51.865Z,12.45
2022-09-18T04:16:19.558Z,12.44
2022-09-18T04:18:47.181Z,12.45
2022-09-18T04:21:14.818Z,12.43
2022-09-18T04:23:42.443Z,12.40
2022-09-18T04:26:10.351Z,12.39
2022-09-18T04:28:39.430Z,12.41
2022-09-18T04:31:07.251Z,12.41
2022-09-18T04:33:34.907Z,12.42
2022-09-18T04:36:02.962Z,12.41
2022-09-18T04:38:30.581Z,12.45
2022-09-18T04:40:58.981Z,12.44
2022-09-18T04:43:27.904Z,12.43
2022-09-18T04:45:57.095Z,12.42
2022-09-18T04:48:24.903Z,12.43
2022-09-18T04:50:52.796Z,12.42
2022-09-18T04:53:21.117Z,12.42
2022-09-18T04:55:49.758Z,12.42
2022-09-18T04:58:18.705Z,12.41
2022-09-18T05:00:48.888Z,12.40
2022-09-18T05:03:19.318Z,12.42
2022-09-18T05:05:48.298Z,12.44
2022-09-18T05:08:15.925Z,12.46
2022-09-18T05:10:43.927Z,12.46
2022-09-18T05:13:11.555Z,12.47
2022-09-18T05:15:39.185Z,12.52
2022-09-18T05:18:11.529Z,12.52
2022-09-18T05:20:41.099Z,12.52
2022-09-18T05:23:08.748Z,12.51
2022-09-18T05:25:36.378Z,12.52
2022-09-18T05:28:04.908Z,12.53
2022-09-18T05:30:33.059Z,12.52
2022-09-18T05:33:02.630Z,12.52
2022-09-18T05:35:32.143Z,12.52
2022-09-18T05:38:01.826Z,12.50
2022-09-18T05:40:32.781Z,12.47
2022-09-18T05:43:01.007Z,12.48
2022-09-18T05:45:28.655Z,12.46
2022-09-18T05:47:57.786Z,12.46
2022-09-18T05:50:26.946Z,12.48
2022-09-18T05:52:59.580Z,12.52
2022-09-18T05:55:31.774Z,12.57
2022-09-18T05:58:01.189Z,12.58
2022-09-18T06:00:31.203Z,12.60
2022-09-18T06:03:00.302Z,12.61
2022-09-18T06:05:29.459Z,12.61
2022-09-18T06:07:59.985Z,12.62
2022-09-18T06:10:30.385Z,12.63
2022-09-18T06:13:02.560Z,12.68
2022-09-18T06:15:30.362Z,12.73
2022-09-18T06:17:58.065Z,12.76
2022-09-18T06:20:25.686Z,12.76
2022-09-18T06:22:53.503Z,12.75
2022-09-18T06:25:22.077Z,12.73
2022-09-18T06:27:54.526Z,12.72
2022-09-18T06:30:22.023Z,12.72
2022-09-18T06:32:49.686Z,12.76
2022-09-18T06:35:17.525Z,12.78
2022-09-18T06:37:45.123Z,12.76
2022-09-18T06:40:13.414Z,12.76
2022-09-18T06:42:45.825Z,12.79
2022-09-18T06:45:15.076Z,12.81
2022-09-18T06:47:42.712Z,12.83
2022-09-18T06:50:10.616Z,12.86
2022-09-18T06:52:38.232Z,12.88
2022-09-18T06:55:06.484Z,12.93
2022-09-18T06:57:34.100Z,12.96
2022-09-18T07:00:01.999Z,12.95
2022-09-18T07:02:31.054Z,12.98
2022-09-18T07:04:58.737Z,13.04
2022-09-18T07:07:26.371Z,13.04
2022-09-18T07:09:54.001Z,13.04
2022-09-18T07:12:21.770Z,13.08
2022-09-18T07:14:55.507Z,13.11
2022-09-18T07:17:26.233Z,13.15
2022-09-18T07:19:55.687Z,13.22
2022-09-18T07:22:23.334Z,13.25
2022-09-18T07:24:51.035Z,13.29
2022-09-18T07:27:18.659Z,13.33
2022-09-18T07:29:46.333Z,13.42
2022-09-18T07:32:13.998Z,13.52
2022-09-18T07:34:41.702Z,13.56
2022-09-18T07:37:10.709Z,13.63
2022-09-18T07:39:38.319Z,13.75
2022-09-18T07:42:08.968Z,13.81
2022-09-18T07:44:36.786Z,13.85
2022-09-18T07:47:05.419Z,13.88
2022-09-18T07:49:33.821Z,13.83
2022-09-18T07:52:02.331Z,13.83
2022-09-18T07:54:32.193Z,13.76
2022-09-18T07:56:59.874Z,13.69
2022-09-18T07:59:27.502Z,13.68
2022-09-18T08:01:55.884Z,13.69
2022-09-18T08:04:23.849Z,13.73
2022-09-18T08:06:55.098Z,13.75
2022-09-18T08:09:23.272Z,13.78
2022-09-18T08:11:54.108Z,13.78
2022-09-18T08:14:25.359Z,13.84
2022-09-18T08:16:55.731Z,13.88
2022-09-18T08:19:23.416Z,13.87
2022-09-18T08:21:51.022Z,13.87
2022-09-18T08:24:18.963Z,13.81
2022-09-18T08:26:46.721Z,13.73
2022-09-18T08:29:19.244Z,13.74
2022-09-18T08:31:47.878Z,13.78
2022-09-18T08:34:15.895Z,13.69
2022-09-18T08:36:43.569Z,13.69
2022-09-18T08:39:11.224Z,13.69
2022-09-18T08:41:52.427Z,13.73
2022-09-18T08:44:25.069Z,13.77
2022-09-18T08:46:59.225Z,13.88
2022-09-18T08:49:32.728Z,13.93
2022-09-18T08:52:05.736Z,13.98
2022-09-18T08:54:44.525Z,14.05
2022-09-18T08:57:17.253Z,14.10
2022-09-18T08:59:50.578Z,14.14
2022-09-18T09:02:28.428Z,14.22
2022-09-18T09:04:59.656Z,14.22
2022-09-18T09:07:46.075Z,14.22
2022-09-18T09:10:27.307Z,14.25
2022-09-18T09:13:04.878Z,14.24
2022-09-18T09:15:40.401Z,14.22
2022-09-18T09:18:19.199Z,14.22
2022-09-18T09:20:52.296Z,14.26
2022-09-18T09:23:28.852Z,14.30
2022-09-18T09:26:05.417Z,14.28
2022-09-18T09:28:39.412Z,14.34
2022-09-18T09:31:10.934Z,14.40
2022-09-18T09:33:43.384Z,14.46
2022-09-18T09:36:11.783Z,14.48
2022-09-18T09:38:47.170Z,14.40
2022-09-18T09:41:23.693Z,14.35
2022-09-18T09:43:58.987Z,14.32
2022-09-18T09:46:44.539Z,14.20
2022-09-18T09:49:18.478Z,13.95
2022-09-18T09:51:54.362Z,13.96
2022-09-18T09:54:22.068Z,13.92
2022-09-18T09:56:55.416Z,13.92
2022-09-18T09:59:30.890Z,13.92
2022-09-18T10:02:05.760Z,13.86
2022-09-18T10:04:45.322Z,13.74
2022-09-18T10:07:20.783Z,13.69
2022-09-18T10:09:54.577Z,13.47
2022-09-18T10:12:31.830Z,13.55
2022-09-18T10:15:07.923Z,13.53
2022-09-18T10:17:41.322Z,13.58
2022-09-18T10:20:17.528Z,13.73
2022-09-18T10:22:47.642Z,13.69
2022-09-18T10:25:21.965Z,13.73
2022-09-18T10:27:49.595Z,13.67
2022-09-18T10:30:17.559Z,13.54
2022-09-18T10:32:46.640Z,13.49
2022-09-18T10:35:41.375Z,13.53
2022-09-18T10:38:32.372Z,13.62
2022-09-18T10:41:18.811Z,13.76
2022-09-18T10:43:55.932Z,13.95
2022-09-18T10:46:32.814Z,14.14
2022-09-18T10:49:05.908Z,14.27
2022-09-18T10:51:33.614Z,14.33
2022-09-18T10:54:05.010Z,14.32
2022-09-18T10:56:33.400Z,14.31
2022-09-18T10:59:33.422Z,14.41
2022-09-18T11:02:03.620Z,14.49
2022-09-18T11:04:34.050Z,14.61
2022-09-18T11:07:07.311Z,14.64
2022-09-18T11:09:38.745Z,14.64
2022-09-18T11:12:13.455Z,14.59
2022-09-18T11:14:44.614Z,14.56
2022-09-18T11:17:23.827Z,14.56
2022-09-18T11:19:55.185Z,14.53
2022-09-18T11:22:41.309Z,14.57
2022-09-18T11:25:20.080Z,14.58
2022-09-18T11:27:49.776Z,14.66
2022-09-18T11:30:22.898Z,14.68
2022-09-18T11:32:54.536Z,14.71
2022-09-18T11:35:23.782Z,14.73
2022-09-18T11:37:54.348Z,14.75
2022-09-18T11:40:25.621Z,14.73
2022-09-18T11:42:55.366Z,14.77
2022-09-18T11:45:35.898Z,14.81
2022-09-18T11:48:13.139Z,14.90
2022-09-18T11:50:42.438Z,14.94
2022-09-18T11:53:14.332Z,14.96
2022-09-18T11:55:44.898Z,15.01
2022-09-18T11:58:16.563Z,14.99
2022-09-18T12:00:49.040Z,14.93
2022-09-18T12:03:21.729Z,14.92
2022-09-18T12:05:56.409Z,14.85
2022-09-18T12:08:33.802Z,14.86
2022-09-18T12:11:11.279Z,14.83
2022-09-18T12:13:46.922Z,14.73
2022-09-18T12:16:20.742Z,14.68
2022-09-18T12:18:55.261Z,14.66
2022-09-18T12:21:35.559Z,14.67
2022-09-18T12:24:03.543Z,14.61
2022-09-18T12:26:41.911Z,14.64
2022-09-18T12:29:20.774Z,14.65
2022-09-18T12:31:59.348Z,14.72
2022-09-18T12:34:34.567Z,14.76
2022-09-18T12:37:28.571Z,14.74
2022-09-18T12:40:12.332Z,14.65
2022-09-18T12:42:53.400Z,14.65
2022-09-18T12:45:51.194Z,14.58
2022-09-18T12:48:31.517Z,14.53
2022-09-18T12:51:15.846Z,14.48
2022-09-18T12:53:53.851Z,14.45
2022-09-18T12:56:35.866Z,14.48
2022-09-18T12:59:20.963Z,14.49
2022-09-18T13:01:53.581Z,14.49
2022-09-18T13:04:27.527Z,14.53
2022-09-18T13:07:00.352Z,14.56
2022-09-18T13:09:35.363Z,14.59
2022-09-18T13:12:06.710Z,14.58
2022-09-18T13:14:38.946Z,14.60
2022-09-18T13:17:12.480Z,14.59
2022-09-18T13:19:47.750Z,14.63
2022-09-18T13:22:18.585Z,14.62
2022-09-18T13:24:52.255Z,14.52
2022-09-18T13:27:22.330Z,14.46
2022-09-18T13:29:58.900Z,14.41
2022-09-18T13:32:39.215Z,14.46
2022-09-18T13:35:20.560Z,14.45
2022-09-18T13:37:49.750Z,14.54
2022-09-18T13:40:35.870Z,14.61
2022-09-18T13:43:24.590Z,14.64
2022-09-18T13:45:52.813Z,14.70
2022-09-18T13:48:24.865Z,14.74
2022-09-18T13:50:56.590Z,14.75
2022-09-18T13:53:43.325Z,14.62
2022-09-18T13:56:14.162Z,14.61
2022-09-18T13:58:52.704Z,14.49
2022-09-18T14:02:01.113Z,14.14
2022-09-18T14:05:08.562Z,13.70
2022-09-18T14:07:49.272Z,13.59
2022-09-18T14:10:59.540Z,13.52
2022-09-18T14:13:43.882Z,13.41
2022-09-18T14:16:24.626Z,13.24
2022-09-18T14:19:05.513Z,13.04
2022-09-18T14:21:39.950Z,12.80
2022-09-18T14:24:36.329Z,12.56
2022-09-18T14:27:36.815Z,12.54
2022-09-18T14:30:18.192Z,12.46
2022-09-18T14:33:13.862Z,12.30
2022-09-18T14:36:04.418Z,12.41
2022-09-18T14:38:35.345Z,12.42
2022-09-18T14:41:10.175Z,12.61
2022-09-18T14:43:39.810Z,12.68
2022-09-18T14:46:18.570Z,12.75
2022-09-18T14:48:46.235Z,12.85
2022-09-18T14:51:19.556Z,12.83
2022-09-18T14:53:50.990Z,12.67
2022-09-18T14:56:23.916Z,12.59
2022-09-18T14:58:52.136Z,12.51
2022-09-18T15:01:24.217Z,12.42
2022-09-18T15:03:54.433Z,12.40
2022-09-18T15:06:24.998Z,12.47
2022-09-18T15:08:55.716Z,12.49
2022-09-18T15:11:32.100Z,12.53
2022-09-18T15:14:21.341Z,12.36
2022-09-18T15:16:57.570Z,12.33
2022-09-18T15:19:25.539Z,12.36
2022-09-18T15:21:54.304Z,12.38
2022-09-18T15:24:22.535Z,12.40
2022-09-18T15:26:56.132Z,12.41
2022-09-18T15:29:27.310Z,12.37
2022-09-18T15:31:57.214Z,12.37
2022-09-18T15:34:27.956Z,12.40
2022-09-18T15:36:57.800Z,12.37
2022-09-18T15:39:30.839Z,12.36
2022-09-18T15:42:14.357Z,12.27
2022-09-18T15:45:22.830Z,12.28
2022-09-18T15:47:52.516Z,12.35
2022-09-18T15:50:36.588Z,12.33
2022-09-18T15:53:25.672Z,12.38
2022-09-18T15:55:59.998Z,12.38
2022-09-18T15:58:42.255Z,12.36
2022-09-18T16:01:18.483Z,12.32
2022-09-18T16:03:47.951Z,12.35
2022-09-18T16:06:26.469Z,12.37
2022-09-18T16:08:57.259Z,12.36
2022-09-18T16:11:40.816Z,12.33
2022-09-18T16:14:45.721Z,12.23
2022-09-18T16:17:36.991Z,12.04
2022-09-18T16:20:31.644Z,12.04
2022-09-18T16:23:15.116Z,12.15
2022-09-18T16:25:43.618Z,12.12
2022-09-18T16:28:24.980Z,12.19
2022-09-18T16:30:53.466Z,12.19
2022-09-18T16:33:23.196Z,12.17
2022-09-18T16:35:57.779Z,12.14
2022-09-18T16:38:25.413Z,12.11
2022-09-18T16:40:53.035Z,12.05
2022-09-18T16:43:21.026Z,12.08
2022-09-18T16:45:49.038Z,12.05
2022-09-18T16:48:17.059Z,12.01
2022-09-18T16:50:45.073Z,11.97
2022-09-18T16:53:16.180Z,12.01
2022-09-18T16:55:47.078Z,12.07
2022-09-18T16:58:15.894Z,12.05
2022-09-18T17:00:43.766Z,12.05
2022-09-18T17:03:12.125Z,12.07
2022-09-18T17:05:39.886Z,11.92
2022-09-18T17:08:07.513Z,11.99
2022-09-18T17:10:36.835Z,12.04
2022-09-18T17:13:05.258Z,12.10
2022-09-18T17:15:32.962Z,12.15
2022-09-18T17:18:00.592Z,12.17
2022-09-18T17:20:30.888Z,12.16
2022-09-18T17:22:58.523Z,12.17
2022-09-18T17:25:26.332Z,12.21
2022-09-18T17:27:55.310Z,12.18
2022-09-18T17:30:23.041Z,12.12
2022-09-18T17:32:50.717Z,12.09
2022-09-18T17:35:18.757Z,12.08
2022-09-18T17:37:46.461Z,12.08
2022-09-18T17:40:14.250Z,12.07
2022-09-18T17:42:41.950Z,12.06
2022-09-18T17:45:11.509Z,12.05
2022-09-18T17:47:39.147Z,12.00
2022-09-18T17:50:07.568Z,12.00
2022-09-18T17:52:35.982Z,12.01
2022-09-18T17:55:04.460Z,12.01
2022-09-18T17:57:32.816Z,12.00
2022-09-18T18:00:00.405Z,11.97
2022-09-18T18:02:29.415Z,11.93
2022-09-18T18:04:57.205Z,11.91
2022-09-18T18:07:25.002Z,11.88
2022-09-18T18:09:52.586Z,11.85
2022-09-18T18:12:20.195Z,11.82
2022-09-18T18:14:47.828Z,11.75
2022-09-18T18:17:15.509Z,11.70
2022-09-18T18:19:45.964Z,11.67
2022-09-18T18:22:13.588Z,11.60
2022-09-18T18:24:41.244Z,11.57
2022-09-18T18:27:10.270Z,11.50
2022-09-18T18:29:39.727Z,11.45
2022-09-18T18:32:07.660Z,11.41
2022-09-18T18:34:35.295Z,11.41
2022-09-18T18:37:05.888Z,11.38
2022-09-18T18:39:33.646Z,11.35
2022-09-18T18:42:01.418Z,11.30
2022-09-18T18:44:29.235Z,11.25
2022-09-18T18:46:56.964Z,11.25
2022-09-18T18:49:24.624Z,11.22
2022-09-18T18:51:52.271Z,11.20
2022-09-18T18:54:22.813Z,11.19
2022-09-18T18:56:51.599Z,11.16
2022-09-18T18:59:22.185Z,11.16
2022-09-18T19:01:50.329Z,11.16
2022-09-18T19:04:19.796Z,11.15
2022-09-18T19:06:48.674Z,11.10
2022-09-18T19:09:20.348Z,11.02
2022-09-18T19:11:51.734Z,11.02
2022-09-18T19:14:21.564Z,11.02
2022-09-18T19:16:50.126Z,11.04
2022-09-18T19:19:19.726Z,11.06
2022-09-18T19:21:48.070Z,11.05
2022-09-18T19:24:18.469Z,11.01
2022-09-18T19:26:46.938Z,10.92
2022-09-18T19:29:17.603Z,10.93
2022-09-18T19:31:46.367Z,10.95
2022-09-18T19:34:16.109Z,10.95
2022-09-18T19:36:49.953Z,10.96
2022-09-18T19:39:18.409Z,10.96
2022-09-18T19:41:51.287Z,10.95
2022-09-18T19:44:26.836Z,10.89
2022-09-18T19:46:56.585Z,10.89
2022-09-18T19:49:32.795Z,10.89
2022-09-18T19:52:01.312Z,10.91
2022-09-18T19:54:29.165Z,10.88
2022-09-18T19:56:58.059Z,10.84
2022-09-18T19:59:27.150Z,10.84
2022-09-18T20:01:55.320Z,10.82
2022-09-18T20:04:23.026Z,10.83
2022-09-18T20:06:50.655Z,10.84
2022-09-18T20:09:18.311Z,10.85
2022-09-18T20:11:48.305Z,10.88
2022-09-18T20:14:16.425Z,10.86
2022-09-18T20:16:45.537Z,10.84
2022-09-18T20:19:13.267Z,10.83
2022-09-18T20:21:41.008Z,10.84
2022-09-18T20:24:08.673Z,10.83
2022-09-18T20:26:36.325Z,10.79
2022-09-18T20:29:04.150Z,10.81
2022-09-18T20:31:31.811Z,10.80
2022-09-18T20:34:00.999Z,10.78
2022-09-18T20:36:29.321Z,10.78
2022-09-18T20:38:57.829Z,10.81
2022-09-18T20:41:29.847Z,10.76
2022-09-18T20:44:01.100Z,10.70
2022-09-18T20:46:28.908Z,10.69
2022-09-18T20:48:56.721Z,10.68
2022-09-18T20:51:28.882Z,10.70
2022-09-18T20:53:58.138Z,10.69
2022-09-18T20:56:28.014Z,10.61
2022-09-18T20:58:56.702Z,10.59
2022-09-18T21:01:27.819Z,10.63
2022-09-18T21:03:57.705Z,10.62
2022-09-18T21:06:31.603Z,10.62
2022-09-18T21:09:00.187Z,10.59
2022-09-18T21:11:29.857Z,10.54
2022-09-18T21:14:01.189Z,10.53
2022-09-18T21:16:31.566Z,10.54
2022-09-18T21:19:01.845Z,10.50
2022-09-18T21:21:33.818Z,10.53
2022-09-18T21:24:02.487Z,10.50
2022-09-18T21:26:33.094Z,10.48
2022-09-18T21:29:02.862Z,10.49
2022-09-18T21:31:32.696Z,10.47
2022-09-18T21:34:01.544Z,10.46
2022-09-18T21:36:31.196Z,10.47
2022-09-18T21:39:00.508Z,10.53
2022-09-18T21:41:28.215Z,10.57
2022-09-18T21:43:57.434Z,10.56
2022-09-18T21:46:25.282Z,10.54
2022-09-18T21:48:56.711Z,10.49
2022-09-18T21:51:24.374Z,10.41
2022-09-18T21:53:52.097Z,10.38
2022-09-18T21:56:21.641Z,10.44
2022-09-18T21:58:50.250Z,10.47
2022-09-18T22:01:19.965Z,10.48
2022-09-18T22:03:52.181Z,10.48
2022-09-18T22:06:21.032Z,10.47
2022-09-18T22:08:50.801Z,10.49
2022-09-18T22:11:19.764Z,10.51
2022-09-18T22:13:48.795Z,10.54
2022-09-18T22:16:16.967Z,10.45
2022-09-18T22:18:45.235Z,10.40
2022-09-18T22:21:20.375Z,10.45
2022-09-18T22:23:53.152Z,10.50
2022-09-18T22:26:21.985Z,10.53
2022-09-18T22:28:53.351Z,10.55
2022-09-18T22:31:22.319Z,10.62
2022-09-18T22:33:53.545Z,10.62
2022-09-18T22:36:22.126Z,10.62
2022-09-18T22:38:49.854Z,10.56
2022-09-18T22:41:17.938Z,10.54
2022-09-18T22:43:45.584Z,10.55
2022-09-18T22:46:17.550Z,10.51
2022-09-18T22:48:45.278Z,10.50
2022-09-18T22:51:15.107Z,10.52
2022-09-18T22:53:48.945Z,10.53
2022-09-18T22:56:17.685Z,10.58
2022-09-18T22:58:45.918Z,10.60
2022-09-18T23:01:18.646Z,10.63
2022-09-18T23:03:47.632Z,10.65
2022-09-18T23:06:16.628Z,10.69
2022-09-18T23:08:46.147Z,10.69
2022-09-18T23:11:16.118Z,10.75
2022-09-18T23:13:48.881Z,10.78
2022-09-18T23:16:18.365Z,10.80
2022-09-18T23:18:49.361Z,10.76
2022-09-18T23:21:17.698Z,10.78
2022-09-18T23:23:46.887Z,10.79
2022-09-18T23:26:19.298Z,10.79
2022-09-18T23:28:48.297Z,10.78
2022-09-18T23:31:21.425Z,10.78
2022-09-18T23:33:50.809Z,10.78
2022-09-18T23:36:20.747Z,10.73
2022-09-18T23:38:49.554Z,10.70
2022-09-18T23:41:17.765Z,10.65
2022-09-18T23:43:47.177Z,10.67
2022-09-18T23:46:15.442Z,10.70
2022-09-18T23:48:47.344Z,10.70
2022-09-18T23:51:16.115Z,10.71
2022-09-18T23:53:43.726Z,10.72
2022-09-18T23:56:13.120Z,10.76
2022-09-18T23:58:41.848Z,10.78
